createdAt,value
2019-06-01T00:01:28.268Z,101424.92
2019-06-01T00:03:59.988Z,101425.31
2019-06-01T00:06:28.752Z,101424.36
2019-06-01T00:08:58.220Z,101423.94
2019-06-01T00:11:27.136Z,101421.14
2019-06-01T00:13:57.332Z,101423.37
2019-06-01T00:16:27.891Z,101420.06
2019-06-01T00:18:56.991Z,101425.80
2019-06-01T00:21:27.254Z,101425.05
2019-06-01T00:23:57.602Z,101427.11
2019-06-01T00:26:27.964Z,101424.80
2019-06-01T00:28:56.681Z,101415.81
2019-06-01T00:31:25.407Z,101423.55
2019-06-01T00:33:54.126Z,101424.89
2019-06-01T00:36:24.174Z,101422.89
2019-06-01T00:38:52.875Z,101420.92
2019-06-01T00:41:21.967Z,101427.32
2019-06-01T00:43:52.540Z,101421.30
2019-06-01T00:46:24.144Z,101420.05
2019-06-01T00:48:54.135Z,101424.06
2019-06-01T00:51:24.288Z,101421.51
2019-06-01T00:53:54.149Z,101428.12
2019-06-01T00:56:23.489Z,101427.87
2019-06-01T00:58:52.182Z,101424.89
2019-06-01T01:01:21.135Z,101420.09
2019-06-01T01:03:50.339Z,101427.38
2019-06-01T01:06:20.614Z,101422.80
2019-06-01T01:08:50.866Z,101421.21
2019-06-01T01:11:20.721Z,101419.67
2019-06-01T01:13:49.512Z,101428.28
2019-06-01T01:16:19.598Z,101425.48
2019-06-01T01:18:49.746Z,101417.82
2019-06-01T01:21:19.941Z,101417.86
2019-06-01T01:23:50.320Z,101412.89
2019-06-01T01:26:20.564Z,101410.63
2019-06-01T01:28:52.948Z,101405.56
2019-06-01T01:31:22.160Z,101407.69
2019-06-01T01:33:53.368Z,101408.78
2019-06-01T01:36:22.160Z,101405.11
2019-06-01T01:38:52.291Z,101408.95
2019-06-01T01:41:22.761Z,101410.13
2019-06-01T01:43:52.855Z,101406.48
2019-06-01T01:46:21.723Z,101409.38
2019-06-01T01:48:50.421Z,101406.11
2019-06-01T01:51:22.170Z,101404.48
2019-06-01T01:53:52.970Z,101410.30
2019-06-01T01:56:22.570Z,101416.61
2019-06-01T01:58:54.254Z,101409.58
2019-06-01T02:01:23.435Z,101414.30
2019-06-01T02:03:54.013Z,101409.31
2019-06-01T02:06:24.219Z,101410.69
2019-06-01T02:08:53.531Z,101408.08
2019-06-01T02:11:25.378Z,101414.91
2019-06-01T02:13:57.711Z,101408.50
2019-06-01T02:16:26.761Z,101409.30
2019-06-01T02:18:57.117Z,101416.97
2019-06-01T02:21:25.946Z,101416.02
2019-06-01T02:23:58.939Z,101406.05
2019-06-01T02:26:29.421Z,101399.61
2019-06-01T02:28:59.593Z,101402.63
2019-06-01T02:31:40.775Z,101404.21
2019-06-01T02:34:02.985Z,101411.54
2019-06-01T02:36:31.755Z,101405.88
2019-06-01T02:39:03.283Z,101406.05
2019-06-01T02:41:33.534Z,101405.63
2019-06-01T02:44:03.915Z,101407.02
2019-06-01T02:46:35.779Z,101407.15
2019-06-01T02:49:06.248Z,101409.24
2019-06-01T02:51:35.233Z,101404.42
2019-06-01T02:54:06.259Z,101401.86
2019-06-01T02:56:35.404Z,101403.00
2019-06-01T02:59:06.793Z,101401.45
2019-06-01T03:01:38.521Z,101399.34
2019-06-01T03:04:13.638Z,101396.78
2019-06-01T03:06:44.591Z,101403.70
2019-06-01T03:09:15.331Z,101405.70
2019-06-01T03:11:45.339Z,101410.47
2019-06-01T03:14:15.656Z,101410.47
2019-06-01T03:16:45.651Z,101413.27
2019-06-01T03:19:15.960Z,101416.07
2019-06-01T03:21:46.938Z,101409.70
2019-06-01T03:24:15.956Z,101416.19
2019-06-01T03:26:47.452Z,101407.97
2019-06-01T03:29:19.583Z,101410.39
2019-06-01T03:31:49.900Z,101410.63
2019-06-01T03:34:20.047Z,101414.80
2019-06-01T03:36:50.231Z,101413.48
2019-06-01T03:39:19.480Z,101417.35
2019-06-01T03:41:48.949Z,101418.44
2019-06-01T03:44:18.648Z,101422.75
2019-06-01T03:46:47.791Z,101423.83
2019-06-01T03:49:18.591Z,101420.19
2019-06-01T03:51:48.286Z,101424.16
2019-06-01T03:54:16.971Z,101422.52
2019-06-01T03:56:47.552Z,101419.66
2019-06-01T03:59:19.691Z,101418.83
2019-06-01T04:01:49.772Z,101419.15
2019-06-01T04:04:18.755Z,101417.52
2019-06-01T04:06:48.237Z,101422.38
2019-06-01T04:09:20.211Z,101423.22
2019-06-01T04:11:48.898Z,101411.33
2019-06-01T04:14:17.617Z,101414.88
2019-06-01T04:16:46.406Z,101412.29
2019-06-01T04:19:15.161Z,101416.85
2019-06-01T04:21:45.104Z,101414.14
2019-06-01T04:24:15.389Z,101417.03
2019-06-01T04:26:44.101Z,101418.17
2019-06-01T04:29:12.887Z,101413.93
2019-06-01T04:31:42.146Z,101412.47
2019-06-01T04:34:11.571Z,101419.08
2019-06-01T04:36:40.365Z,101419.28
2019-06-01T04:39:15.459Z,101417.94
2019-06-01T04:41:44.494Z,101422.65
2019-06-01T04:44:14.382Z,101422.97
2019-06-01T04:46:46.305Z,101419.55
2019-06-01T04:49:15.218Z,101418.94
2019-06-01T04:51:44.959Z,101423.91
2019-06-01T04:54:23.323Z,101417.59
2019-06-01T04:56:52.689Z,101408.52
2019-06-01T04:59:21.427Z,101416.08
2019-06-01T05:01:50.495Z,101419.38
2019-06-01T05:04:19.194Z,101414.28
2019-06-01T05:06:47.859Z,101416.08
2019-06-01T05:09:16.787Z,101411.21
2019-06-01T05:11:45.460Z,101415.44
2019-06-01T05:14:14.149Z,101409.52
2019-06-01T05:16:43.858Z,101408.64
2019-06-01T05:19:12.511Z,101406.97
2019-06-01T05:21:41.249Z,101406.59
2019-06-01T05:24:10.650Z,101405.61
2019-06-01T05:26:39.356Z,101404.91
2019-06-01T05:29:09.365Z,101409.20
2019-06-01T05:31:38.598Z,101411.08
2019-06-01T05:34:09.706Z,101399.06
2019-06-01T05:36:39.241Z,101399.23
2019-06-01T05:39:08.669Z,101405.12
2019-06-01T05:41:37.771Z,101409.66
2019-06-01T05:44:08.803Z,101405.03
2019-06-01T05:46:38.840Z,101402.67
2019-06-01T05:49:11.619Z,101405.52
2019-06-01T05:51:39.421Z,101410.78
2019-06-01T05:54:10.465Z,101419.68
2019-06-01T05:56:39.160Z,101423.27
2019-06-01T05:59:09.860Z,101414.24
2019-06-01T06:01:39.699Z,101419.10
2019-06-01T06:04:09.926Z,101416.82
2019-06-01T06:06:40.415Z,101418.51
2019-06-01T06:09:11.463Z,101427.27
2019-06-01T06:11:41.579Z,101437.19
2019-06-01T06:14:11.487Z,101431.77
2019-06-01T06:16:41.368Z,101433.24
2019-06-01T06:19:12.545Z,101425.52
2019-06-01T06:21:41.778Z,101432.94
2019-06-01T06:24:10.734Z,101423.37
2019-06-01T06:26:40.715Z,101429.72
2019-06-01T06:29:10.525Z,101431.01
2019-06-01T06:31:39.273Z,101430.67
2019-06-01T06:34:07.977Z,101433.06
2019-06-01T06:36:36.678Z,101425.53
2019-06-01T06:39:08.011Z,101421.46
2019-06-01T06:41:37.146Z,101420.20
2019-06-01T06:44:07.550Z,101420.60
2019-06-01T06:46:37.786Z,101420.14
2019-06-01T06:49:09.793Z,101426.48
2019-06-01T06:51:37.130Z,101416.47
2019-06-01T06:54:08.646Z,101416.48
2019-06-01T06:56:38.591Z,101408.06
2019-06-01T06:59:11.751Z,101411.27
2019-06-01T07:01:39.409Z,101409.13
2019-06-01T07:04:12.658Z,101415.36
2019-06-01T07:06:38.526Z,101413.02
2019-06-01T07:09:07.797Z,101412.65
2019-06-01T07:11:37.278Z,101409.91
2019-06-01T07:14:06.103Z,101417.84
2019-06-01T07:16:34.841Z,101407.33
2019-06-01T07:19:04.724Z,101410.95
2019-06-01T07:21:37.035Z,101408.33
2019-06-01T07:24:08.791Z,101416.84
2019-06-01T07:26:38.673Z,101410.44
2019-06-01T07:29:08.711Z,101411.95
2019-06-01T07:31:39.065Z,101416.36
2019-06-01T07:34:09.265Z,101413.64
2019-06-01T07:36:39.599Z,101416.36
2019-06-01T07:39:09.799Z,101411.23
2019-06-01T07:41:38.752Z,101419.84
2019-06-01T07:44:08.695Z,101423.98
2019-06-01T07:46:37.555Z,101419.53
2019-06-01T07:49:06.792Z,101418.88
2019-06-01T07:51:36.276Z,101418.44
2019-06-01T07:54:06.385Z,101422.84
2019-06-01T07:56:38.368Z,101416.65
2019-06-01T07:59:07.451Z,101415.05
2019-06-01T08:01:37.358Z,101421.98
2019-06-01T08:04:06.039Z,101420.65
2019-06-01T08:06:35.911Z,101406.23
2019-06-01T08:09:07.486Z,101406.06
2019-06-01T08:11:37.312Z,101408.02
2019-06-01T08:14:09.983Z,101406.76
2019-06-01T08:16:45.086Z,101415.34
2019-06-01T08:19:14.482Z,101413.45
2019-06-01T08:21:44.407Z,101415.36
2019-06-01T08:24:16.720Z,101409.58
2019-06-01T08:26:47.106Z,101411.77
2019-06-01T08:29:18.570Z,101412.62
2019-06-01T08:31:47.521Z,101414.00
2019-06-01T08:34:18.175Z,101412.08
2019-06-01T08:36:49.900Z,101410.13
2019-06-01T08:39:19.678Z,101414.23
2019-06-01T08:41:48.324Z,101411.79
2019-06-01T08:44:18.748Z,101407.41
2019-06-01T08:46:47.757Z,101400.86
2019-06-01T08:49:23.898Z,101396.77
2019-06-01T08:51:53.138Z,101400.84
2019-06-01T08:54:25.957Z,101395.67
2019-06-01T08:56:54.926Z,101396.47
2019-06-01T08:59:24.261Z,101401.67
2019-06-01T09:01:53.122Z,101402.22
2019-06-01T09:04:22.904Z,101397.59
2019-06-01T09:06:53.143Z,101401.41
2019-06-01T09:09:22.891Z,101392.69
2019-06-01T09:11:53.016Z,101400.03
2019-06-01T09:14:21.741Z,101393.20
2019-06-01T09:16:50.643Z,101385.30
2019-06-01T09:19:19.636Z,101385.03
2019-06-01T09:21:48.649Z,101378.72
2019-06-01T09:24:18.928Z,101386.91
2019-06-01T09:26:51.155Z,101388.28
2019-06-01T09:29:20.254Z,101383.39
2019-06-01T09:31:49.086Z,101371.36
2019-06-01T09:34:19.063Z,101386.65
2019-06-01T09:36:48.032Z,101380.38
2019-06-01T09:39:16.828Z,101377.66
2019-06-01T09:41:47.079Z,101384.77
2019-06-01T09:44:16.079Z,101382.27
2019-06-01T09:46:46.213Z,101368.91
2019-06-01T09:49:14.915Z,101374.34
2019-06-01T09:51:43.615Z,101366.95
2019-06-01T09:54:12.348Z,101372.69
2019-06-01T09:56:44.088Z,101372.09
2019-06-01T09:59:12.792Z,101370.94
2019-06-01T10:01:42.695Z,101377.77
2019-06-01T10:04:12.152Z,101377.66
2019-06-01T10:06:41.697Z,101370.25
2019-06-01T10:09:10.679Z,101370.78
2019-06-01T10:11:40.297Z,101369.83
2019-06-01T10:14:09.546Z,101368.13
2019-06-01T10:16:39.119Z,101367.53
2019-06-01T10:19:09.689Z,101365.94
2019-06-01T10:21:38.429Z,101366.92
2019-06-01T10:24:07.442Z,101369.76
2019-06-01T10:26:38.010Z,101368.82
2019-06-01T10:29:06.990Z,101354.64
2019-06-01T10:31:39.706Z,101354.54
2019-06-01T10:34:06.298Z,101357.61
2019-06-01T10:36:35.941Z,101360.85
2019-06-01T10:39:06.837Z,101364.78
2019-06-01T10:41:35.885Z,101368.80
2019-06-01T10:44:04.810Z,101355.14
2019-06-01T10:46:33.964Z,101352.28
2019-06-01T10:49:03.836Z,101346.75
2019-06-01T10:51:34.207Z,101336.78
2019-06-01T10:54:03.182Z,101347.70
2019-06-01T10:56:34.278Z,101340.39
2019-06-01T10:59:03.360Z,101332.16
2019-06-01T11:01:34.322Z,101334.48
2019-06-01T11:04:04.267Z,101336.34
2019-06-01T11:06:40.207Z,101334.66
2019-06-01T11:09:05.379Z,101334.05
2019-06-01T11:11:35.397Z,101335.00
2019-06-01T11:14:04.505Z,101332.66
2019-06-01T11:16:33.336Z,101331.93
2019-06-01T11:19:02.296Z,101330.80
2019-06-01T11:21:33.499Z,101320.77
2019-06-01T11:24:04.219Z,101321.86
2019-06-01T11:26:35.574Z,101325.35
2019-06-01T11:29:05.270Z,101316.70
2019-06-01T11:31:38.182Z,101314.22
2019-06-01T11:34:07.228Z,101309.30
2019-06-01T11:36:56.853Z,101311.55
2019-06-01T11:39:09.615Z,101310.41
2019-06-01T11:41:40.650Z,101315.75
2019-06-01T11:44:15.956Z,101312.85
2019-06-01T11:46:45.716Z,101311.73
2019-06-01T11:49:14.491Z,101304.23
2019-06-01T11:51:43.418Z,101302.80
2019-06-01T11:54:12.238Z,101295.48
2019-06-01T11:56:41.449Z,101293.23
2019-06-01T11:59:12.073Z,101294.14
2019-06-01T12:01:41.760Z,101295.52
2019-06-01T12:04:10.693Z,101288.98
2019-06-01T12:06:39.851Z,101286.06
2019-06-01T12:09:10.140Z,101291.44
2019-06-01T12:11:40.018Z,101280.86
2019-06-01T12:14:08.928Z,101281.48
2019-06-01T12:16:38.632Z,101278.99
2019-06-01T12:19:07.312Z,101280.57
2019-06-01T12:21:37.040Z,101274.63
2019-06-01T12:24:07.874Z,101266.95
2019-06-01T12:26:37.239Z,101269.64
2019-06-01T12:29:06.055Z,101260.14
2019-06-01T12:31:34.697Z,101257.65
2019-06-01T12:34:03.559Z,101262.77
2019-06-01T12:36:32.216Z,101263.45
2019-06-01T12:39:01.018Z,101262.19
2019-06-01T12:41:33.098Z,101262.34
2019-06-01T12:44:18.119Z,101261.52
2019-06-01T12:46:50.424Z,101247.12
2019-06-01T12:49:21.923Z,101247.90
2019-06-01T12:51:50.664Z,101243.21
2019-06-01T12:54:22.116Z,101246.39
2019-06-01T12:56:53.880Z,101242.49
2019-06-01T12:59:23.433Z,101220.79
2019-06-01T13:01:52.214Z,101220.79
2019-06-01T13:04:21.232Z,101237.03
2019-06-01T13:06:53.007Z,101229.86
2019-06-01T13:09:21.827Z,101227.07
2019-06-01T13:11:51.457Z,101227.57
2019-06-01T13:14:21.494Z,101218.00
2019-06-01T13:17:06.325Z,101215.95
2019-06-01T13:19:23.652Z,101213.55
2019-06-01T13:21:52.481Z,101211.62
2019-06-01T13:24:21.384Z,101201.33
2019-06-01T13:26:50.201Z,101201.53
2019-06-01T13:29:18.847Z,101207.89
2019-06-01T13:31:48.249Z,101201.34
2019-06-01T13:34:16.957Z,101194.42
2019-06-01T13:36:46.584Z,101193.58
2019-06-01T13:39:15.556Z,101191.02
2019-06-01T13:41:45.044Z,101195.77
2019-06-01T13:44:16.908Z,101192.51
2019-06-01T13:46:45.569Z,101195.91
2019-06-01T13:49:14.284Z,101188.38
2019-06-01T13:51:44.026Z,101191.84
2019-06-01T13:54:13.731Z,101183.73
2019-06-01T13:56:42.393Z,101182.48
2019-06-01T13:59:11.357Z,101178.92
2019-06-01T14:01:40.084Z,101179.17
2019-06-01T14:04:08.926Z,101179.09
2019-06-01T14:06:37.550Z,101169.69
2019-06-01T14:09:07.071Z,101171.74
2019-06-01T14:11:35.835Z,101168.28
2019-06-01T14:14:05.644Z,101163.70
2019-06-01T14:16:34.388Z,101164.30
2019-06-01T14:19:06.679Z,101160.27
2019-06-01T14:21:34.127Z,101159.48
2019-06-01T14:24:02.817Z,101159.18
2019-06-01T14:26:31.445Z,101149.71
2019-06-01T14:29:00.144Z,101154.98
2019-06-01T14:31:28.854Z,101157.59
2019-06-01T14:33:58.061Z,101160.84
2019-06-01T14:36:27.054Z,101152.83
2019-06-01T14:38:58.778Z,101149.02
2019-06-01T14:41:28.352Z,101144.94
2019-06-01T14:43:57.803Z,101146.05
2019-06-01T14:46:26.425Z,101137.24
2019-06-01T14:48:55.829Z,101145.94
2019-06-01T14:51:24.980Z,101146.83
2019-06-01T14:53:53.758Z,101152.67
2019-06-01T14:56:22.891Z,101148.72
2019-06-01T14:58:52.101Z,101135.55
2019-06-01T15:01:31.946Z,101138.02
2019-06-01T15:03:52.736Z,101140.61
2019-06-01T15:06:22.398Z,101130.77
2019-06-01T15:09:13.117Z,101134.88
2019-06-01T15:11:24.610Z,101135.59
2019-06-01T15:13:54.745Z,101133.62
2019-06-01T15:16:23.438Z,101131.77
2019-06-01T15:18:52.104Z,101128.68
2019-06-01T15:21:21.058Z,101126.52
2019-06-01T15:23:49.876Z,101121.64
2019-06-01T15:26:18.869Z,101125.73
2019-06-01T15:28:47.510Z,101130.49
2019-06-01T15:31:16.521Z,101120.45
2019-06-01T15:33:45.221Z,101125.16
2019-06-01T15:36:14.029Z,101117.74
2019-06-01T15:38:42.940Z,101119.33
2019-06-01T15:41:11.691Z,101118.98
2019-06-01T15:43:40.370Z,101115.41
2019-06-01T15:46:09.107Z,101107.45
2019-06-01T15:48:40.826Z,101099.83
2019-06-01T15:51:11.239Z,101103.12
2019-06-01T15:53:41.389Z,101105.63
2019-06-01T15:56:11.397Z,101100.27
2019-06-01T15:58:52.274Z,101087.08
2019-06-01T16:01:12.194Z,101090.23
2019-06-01T16:03:40.895Z,101088.25
2019-06-01T16:06:11.212Z,101084.97
2019-06-01T16:08:41.681Z,101091.20
2019-06-01T16:11:10.388Z,101086.34
2019-06-01T16:13:39.792Z,101082.27
2019-06-01T16:16:08.451Z,101081.24
2019-06-01T16:18:43.350Z,101089.81
2019-06-01T16:21:13.355Z,101085.98
2019-06-01T16:23:50.122Z,101084.45
2019-06-01T16:26:16.462Z,101079.83
2019-06-01T16:28:44.366Z,101079.25
2019-06-01T16:31:16.170Z,101073.52
2019-06-01T16:33:46.103Z,101083.80
2019-06-01T16:36:14.778Z,101077.80
2019-06-01T16:38:43.799Z,101078.69
2019-06-01T16:41:12.535Z,101078.67
2019-06-01T16:43:41.409Z,101073.47
2019-06-01T16:46:10.071Z,101077.32
2019-06-01T16:48:38.728Z,101071.31
2019-06-01T16:51:08.645Z,101071.83
2019-06-01T16:53:37.583Z,101068.36
2019-06-01T16:56:06.565Z,101067.94
2019-06-01T16:58:38.408Z,101071.57
2019-06-01T17:01:08.504Z,101066.48
2019-06-01T17:03:38.837Z,101067.07
2019-06-01T17:06:07.591Z,101060.17
2019-06-01T17:08:37.724Z,101064.49
2019-06-01T17:11:06.942Z,101059.51
2019-06-01T17:13:36.712Z,101061.66
2019-06-01T17:16:07.230Z,101064.34
2019-06-01T17:18:37.252Z,101062.00
2019-06-01T17:21:07.602Z,101065.22
2019-06-01T17:23:37.487Z,101063.19
2019-06-01T17:26:08.842Z,101053.87
2019-06-01T17:28:38.664Z,101058.97
2019-06-01T17:31:08.672Z,101065.45
2019-06-01T17:33:40.216Z,101058.42
2019-06-01T17:36:15.103Z,101058.28
2019-06-01T17:38:43.818Z,101056.92
2019-06-01T17:41:13.892Z,101052.39
2019-06-01T17:43:44.040Z,101055.75
2019-06-01T17:46:12.770Z,101054.13
2019-06-01T17:48:43.317Z,101048.93
2019-06-01T17:53:57.691Z,101045.92
2019-06-01T17:56:26.368Z,101045.88
2019-06-01T17:58:55.316Z,101044.61
2019-06-01T18:01:24.242Z,101044.61
2019-06-01T18:03:54.392Z,101047.79
2019-06-01T18:06:23.062Z,101046.45
2019-06-01T18:08:51.714Z,101047.06
2019-06-01T18:11:22.270Z,101049.09
2019-06-01T18:13:50.925Z,101042.73
2019-06-01T18:16:19.845Z,101044.03
2019-06-01T18:18:49.928Z,101037.70
2019-06-01T18:21:18.652Z,101046.59
2019-06-01T18:23:49.330Z,101040.73
2019-06-01T18:26:19.805Z,101040.73
2019-06-01T18:28:51.436Z,101044.95
2019-06-01T18:31:21.580Z,101039.91
2019-06-01T18:33:53.647Z,101030.66
2019-06-01T18:36:22.145Z,101032.55
2019-06-01T18:38:50.942Z,101038.92
2019-06-01T18:41:20.239Z,101042.17
2019-06-01T18:43:49.154Z,101035.73
2019-06-01T18:46:17.879Z,101034.54
2019-06-01T18:48:47.059Z,101040.62
2019-06-01T18:51:15.779Z,101034.88
2019-06-01T18:53:44.410Z,101036.17
2019-06-01T18:56:14.364Z,101045.88
2019-06-01T18:58:43.243Z,101038.01
2019-06-01T19:01:12.559Z,101041.38
2019-06-01T19:03:41.436Z,101038.95
2019-06-01T19:06:11.582Z,101038.41
2019-06-01T19:08:40.342Z,101037.03
2019-06-01T19:11:27.436Z,101032.09
2019-06-01T19:13:40.836Z,101036.39
2019-06-01T19:16:10.107Z,101032.97
2019-06-01T19:18:38.927Z,101030.68
2019-06-01T19:21:10.658Z,101030.77
2019-06-01T19:23:39.309Z,101029.98
2019-06-01T19:26:12.291Z,101029.46
2019-06-01T19:28:39.792Z,101028.38
2019-06-01T19:31:11.120Z,101030.55
2019-06-01T19:33:46.161Z,101030.86
2019-06-01T19:36:18.273Z,101035.20
2019-06-01T19:38:47.279Z,101036.55
2019-06-01T19:41:15.937Z,101038.16
2019-06-01T19:43:44.609Z,101035.27
2019-06-01T19:46:13.972Z,101039.41
2019-06-01T19:48:43.009Z,101037.63
2019-06-01T19:51:14.327Z,101037.46
2019-06-01T19:53:43.315Z,101033.50
2019-06-01T19:56:12.915Z,101034.41
2019-06-01T19:58:41.759Z,101039.05
2019-06-01T20:01:10.480Z,101038.88
2019-06-01T20:03:39.158Z,101037.03
2019-06-01T20:06:07.858Z,101032.53
2019-06-01T20:08:36.525Z,101035.09
2019-06-01T20:11:06.619Z,101041.96
2019-06-01T20:13:36.659Z,101035.10
2019-06-01T20:16:06.721Z,101035.00
2019-06-01T20:18:36.864Z,101034.33
2019-06-01T20:21:08.374Z,101034.91
2019-06-01T20:23:38.452Z,101038.77
2019-06-01T20:26:07.208Z,101040.56
2019-06-01T20:28:37.118Z,101039.95
2019-06-01T20:31:05.908Z,101036.98
2019-06-01T20:33:34.613Z,101034.22
2019-06-01T20:36:03.278Z,101038.69
2019-06-01T20:38:32.191Z,101039.16
2019-06-01T20:41:00.875Z,101040.13
2019-06-01T20:43:29.631Z,101040.75
2019-06-01T20:45:58.358Z,101039.28
2019-06-01T20:48:27.286Z,101038.90
2019-06-01T20:50:56.002Z,101037.98
2019-06-01T20:53:24.696Z,101040.84
2019-06-01T20:55:53.383Z,101032.41
2019-06-01T20:58:23.657Z,101029.91
2019-06-01T21:00:52.694Z,101029.64
2019-06-01T21:03:24.201Z,101028.81
2019-06-01T21:05:54.367Z,101030.41
2019-06-01T21:08:24.608Z,101025.75
2019-06-01T21:10:54.692Z,101020.59
2019-06-01T21:13:25.328Z,101026.40
2019-06-01T21:15:53.977Z,101016.83
2019-06-01T21:18:22.823Z,101018.95
2019-06-01T21:20:51.833Z,101017.54
2019-06-01T21:23:20.761Z,101014.78
2019-06-01T21:25:49.497Z,101023.06
2019-06-01T21:28:20.498Z,101017.05
2019-06-01T21:30:48.779Z,101014.84
2019-06-01T21:33:19.753Z,101019.94
2019-06-01T21:35:49.777Z,101016.92
2019-06-01T21:38:19.746Z,101017.69
2019-06-01T21:40:49.923Z,101012.02
2019-06-01T21:43:29.690Z,101014.66
2019-06-01T21:45:50.120Z,101011.52
2019-06-01T21:48:20.003Z,101016.55
2019-06-01T21:50:51.737Z,101009.80
2019-06-01T21:53:20.411Z,101007.88
2019-06-01T21:55:49.069Z,101013.27
2019-06-01T21:58:18.832Z,101006.31
2019-06-01T22:00:48.272Z,101007.35
2019-06-01T22:03:17.107Z,101014.80
2019-06-01T22:05:45.809Z,101005.44
2019-06-01T22:08:14.518Z,101005.55
2019-06-01T22:10:44.623Z,101008.64
2019-06-01T22:13:18.704Z,100999.00
2019-06-01T22:15:45.094Z,100998.35
2019-06-01T22:18:13.775Z,100999.56
2019-06-01T22:20:43.870Z,100998.67
2019-06-01T22:23:14.351Z,100999.19
2019-06-01T22:25:44.942Z,100993.45
2019-06-01T22:28:18.073Z,100993.39
2019-06-01T22:30:46.958Z,100987.89
2019-06-01T22:33:15.914Z,100988.34
2019-06-01T22:35:46.584Z,100988.73
2019-06-01T22:38:16.621Z,100992.87
2019-06-01T22:40:45.505Z,100989.94
2019-06-01T22:43:14.473Z,100992.56
2019-06-01T22:45:46.157Z,100995.64
2019-06-01T22:48:14.827Z,100994.46
2019-06-01T22:50:43.583Z,100994.77
2019-06-01T22:53:15.281Z,100988.34
2019-06-01T22:55:45.396Z,100989.39
2019-06-01T22:58:15.865Z,100999.43
2019-06-01T23:00:45.699Z,101000.11
2019-06-01T23:03:15.930Z,100995.41
2019-06-01T23:05:44.585Z,100995.24
2019-06-01T23:08:13.567Z,100998.40
2019-06-01T23:10:43.679Z,100994.88
2019-06-01T23:13:13.602Z,100999.87
2019-06-01T23:15:42.291Z,100993.98
2019-06-01T23:18:11.140Z,100994.48
2019-06-01T23:20:42.856Z,100995.98
2019-06-01T23:23:11.529Z,100987.00
2019-06-01T23:25:41.513Z,100988.27
2019-06-01T23:28:10.209Z,100989.34
2019-06-01T23:30:39.252Z,100981.19
2019-06-01T23:33:07.995Z,100973.55
2019-06-01T23:35:38.090Z,100973.67
2019-06-01T23:38:07.909Z,100966.35
2019-06-01T23:40:36.619Z,100963.06
2019-06-01T23:43:05.620Z,100958.72
2019-06-01T23:45:34.521Z,100958.56
2019-06-01T23:48:03.288Z,100958.87
2019-06-01T23:50:34.063Z,100961.48
2019-06-01T23:53:13.142Z,100954.99
2019-06-01T23:55:34.144Z,100953.26
2019-06-01T23:58:03.267Z,100945.54
